createdAt,value
2023-05-02T00:00:52.253Z,23.64
2023-05-02T00:03:24.618Z,23.07
2023-05-02T00:05:59.814Z,23.57
2023-05-02T00:08:32.289Z,23.69
2023-05-02T00:11:04.585Z,22.68
2023-05-02T00:13:36.821Z,22.97
2023-05-02T00:16:11.323Z,22.73
2023-05-02T00:18:43.567Z,21.42
2023-05-02T00:21:18.385Z,21.09
2023-05-02T00:23:50.587Z,19.57
2023-05-02T00:26:23.229Z,20.52
2023-05-02T00:28:55.702Z,19.39
2023-05-02T00:31:28.013Z,19.31
2023-05-02T00:34:00.904Z,18.82
2023-05-02T00:36:35.887Z,17.11
2023-05-02T00:39:08.352Z,16.91
2023-05-02T00:41:40.552Z,14.74
2023-05-02T00:44:12.742Z,13.79
2023-05-02T00:46:45.325Z,12.53
2023-05-02T00:49:17.613Z,12.64
2023-05-02T00:51:52.607Z,12.31
2023-05-02T00:54:24.887Z,12.08
2023-05-02T00:56:57.694Z,11.24
2023-05-02T00:59:31.123Z,10.66
2023-05-02T01:02:15.911Z,10.24
2023-05-02T01:05:03.790Z,9.85
2023-05-02T01:08:09.463Z,9.38
2023-05-02T01:10:53.684Z,9.46
2023-05-02T01:13:30.442Z,8.79
2023-05-02T01:16:06.545Z,7.53
2023-05-02T01:18:42.903Z,7.64
2023-05-02T01:21:16.371Z,7.45
2023-05-02T01:24:09.473Z,6.54
2023-05-02T01:27:07.138Z,5.22
2023-05-02T01:29:44.521Z,4.62
2023-05-02T01:32:20.264Z,4.00
2023-05-02T01:34:57.128Z,3.99
2023-05-02T01:37:32.990Z,3.63
2023-05-02T01:40:08.256Z,3.36
2023-05-02T01:42:43.811Z,3.62
2023-05-02T01:45:21.489Z,3.74
2023-05-02T01:47:54.793Z,3.85
2023-05-02T01:50:30.282Z,3.81
2023-05-02T01:53:04.722Z,3.79
2023-05-02T01:55:42.494Z,4.04
2023-05-02T01:58:16.513Z,4.07
2023-05-02T02:00:53.044Z,3.98
2023-05-02T02:03:27.583Z,3.86
2023-05-02T02:06:02.368Z,3.81
2023-05-02T02:08:34.645Z,3.90
2023-05-02T02:11:16.875Z,3.65
2023-05-02T02:13:56.156Z,3.67
2023-05-02T02:16:36.853Z,3.39
2023-05-02T02:19:14.158Z,3.52
2023-05-02T02:21:50.152Z,3.42
2023-05-02T02:24:26.523Z,3.65
2023-05-02T02:26:59.366Z,3.53
2023-05-02T02:29:31.883Z,3.08
2023-05-02T02:32:06.710Z,3.21
2023-05-02T02:34:39.321Z,2.91
2023-05-02T02:37:18.272Z,2.69
2023-05-02T02:40:04.450Z,2.70
2023-05-02T02:42:46.217Z,2.65
2023-05-02T02:45:33.995Z,2.36
2023-05-02T02:48:25.700Z,2.57
2023-05-02T02:51:14.195Z,2.17
2023-05-02T02:53:59.472Z,2.37
2023-05-02T02:56:39.008Z,2.47
2023-05-02T02:59:19.745Z,2.29
2023-05-02T03:02:04.584Z,2.20
2023-05-02T03:04:45.262Z,2.36
2023-05-02T03:07:18.188Z,2.06
2023-05-02T03:09:52.171Z,2.10
2023-05-02T03:12:24.482Z,2.10
2023-05-02T03:14:59.885Z,2.11
2023-05-02T03:17:32.171Z,2.02
2023-05-02T03:20:07.176Z,1.92
2023-05-02T03:22:39.292Z,1.89
2023-05-02T03:25:12.893Z,1.91
2023-05-02T03:27:45.063Z,2.22
2023-05-02T03:30:17.298Z,2.11
2023-05-02T03:32:49.539Z,2.27
2023-05-02T03:35:24.702Z,2.08
2023-05-02T03:37:56.905Z,2.06
2023-05-02T03:40:29.208Z,2.18
2023-05-02T03:43:01.407Z,2.09
2023-05-02T03:45:33.680Z,2.30
2023-05-02T03:48:05.934Z,2.35
2023-05-02T03:50:40.703Z,2.33
2023-05-02T03:53:13.024Z,2.27
2023-05-02T03:55:47.073Z,2.44
2023-05-02T03:58:19.469Z,2.37
2023-05-02T04:00:53.039Z,2.39
2023-05-02T04:03:29.312Z,2.55
2023-05-02T04:06:04.831Z,2.68
2023-05-02T04:08:37.110Z,2.69
2023-05-02T04:11:09.326Z,2.69
2023-05-02T04:13:41.565Z,2.96
2023-05-02T04:16:14.232Z,2.59
2023-05-02T04:18:46.646Z,2.69
2023-05-02T04:21:21.430Z,2.65
2023-05-02T04:23:53.673Z,2.48
2023-05-02T04:26:25.963Z,2.39
2023-05-02T04:28:58.221Z,2.61
2023-05-02T04:31:30.805Z,2.61
2023-05-02T04:34:04.474Z,2.61
2023-05-02T04:36:39.407Z,2.41
2023-05-02T04:39:11.662Z,2.70
2023-05-02T04:41:44.015Z,2.69
2023-05-02T04:44:16.243Z,2.51
2023-05-02T04:46:48.810Z,2.66
2023-05-02T04:49:21.030Z,3.04
2023-05-02T04:51:55.870Z,2.55
2023-05-02T04:54:28.239Z,2.93
2023-05-02T04:57:03.529Z,3.02
2023-05-02T04:59:35.744Z,2.97
2023-05-02T05:02:08.550Z,2.83
2023-05-02T05:04:41.249Z,3.08
2023-05-02T05:07:16.046Z,3.28
2023-05-02T05:09:50.179Z,3.16
2023-05-02T05:12:23.511Z,3.43
2023-05-02T05:14:55.956Z,3.50
2023-05-02T05:17:28.312Z,3.21
2023-05-02T05:20:00.836Z,3.22
2023-05-02T05:22:35.870Z,3.41
2023-05-02T05:25:08.700Z,3.66
2023-05-02T05:27:41.701Z,3.41
2023-05-02T05:30:15.006Z,3.14
2023-05-02T05:32:47.184Z,3.67
2023-05-02T05:35:19.827Z,3.75
2023-05-02T05:37:54.679Z,3.84
2023-05-02T05:40:26.921Z,3.91
2023-05-02T05:42:59.116Z,4.09
2023-05-02T05:45:31.372Z,4.12
2023-05-02T05:48:03.770Z,3.73
2023-05-02T05:50:36.015Z,3.43
2023-05-02T05:53:10.845Z,3.46
2023-05-02T05:55:43.387Z,3.20
2023-05-02T05:58:15.915Z,3.54
2023-05-02T06:00:48.158Z,3.53
2023-05-02T06:03:20.585Z,3.21
2023-05-02T06:05:53.275Z,3.26
2023-05-02T06:08:28.299Z,3.19
2023-05-02T06:11:00.542Z,3.00
2023-05-02T06:13:32.908Z,2.88
2023-05-02T06:16:05.646Z,3.21
2023-05-02T06:18:37.893Z,3.37
2023-05-02T06:21:10.922Z,3.50
2023-05-02T06:23:46.037Z,3.00
2023-05-02T06:26:18.402Z,3.07
2023-05-02T06:28:50.640Z,3.13
2023-05-02T06:31:23.168Z,3.01
2023-05-02T06:33:55.858Z,3.00
2023-05-02T06:36:28.423Z,2.82
2023-05-02T06:39:03.292Z,2.60
2023-05-02T06:41:35.476Z,2.59
2023-05-02T06:44:07.709Z,2.51
2023-05-02T06:46:40.352Z,2.54
2023-05-02T06:49:12.746Z,2.84
2023-05-02T06:51:45.077Z,2.89
2023-05-02T06:54:21.956Z,2.71
2023-05-02T06:56:54.698Z,2.79
2023-05-02T06:59:26.927Z,2.93
2023-05-02T07:01:59.157Z,2.94
2023-05-02T07:04:31.570Z,3.11
2023-05-02T07:07:04.281Z,2.92
2023-05-02T07:09:39.213Z,2.98
2023-05-02T07:12:11.398Z,3.09
2023-05-02T07:14:43.807Z,3.31
2023-05-02T07:17:16.160Z,3.49
2023-05-02T07:19:48.470Z,3.34
2023-05-02T07:22:20.878Z,3.76
2023-05-02T07:25:02.426Z,3.90
2023-05-02T07:27:34.696Z,3.78
2023-05-02T07:30:07.168Z,3.61
2023-05-02T07:32:39.502Z,3.40
2023-05-02T07:35:12.646Z,3.38
2023-05-02T07:37:44.838Z,3.31
2023-05-02T07:40:20.097Z,3.55
2023-05-02T07:42:53.688Z,3.17
2023-05-02T07:45:26.030Z,3.19
2023-05-02T07:47:58.275Z,3.31
2023-05-02T07:50:32.882Z,3.14
2023-05-02T07:53:05.126Z,2.98
2023-05-02T07:55:40.002Z,3.11
2023-05-02T07:58:12.411Z,3.22
2023-05-02T08:00:44.671Z,3.16
2023-05-02T08:03:17.079Z,2.90
2023-05-02T08:05:49.555Z,2.98
2023-05-02T08:08:21.727Z,2.87
2023-05-02T08:10:56.512Z,2.74
2023-05-02T08:13:28.763Z,2.69
2023-05-02T08:16:01.335Z,3.08
2023-05-02T08:18:33.503Z,2.99
2023-05-02T08:21:05.809Z,2.93
2023-05-02T08:23:38.031Z,2.90
2023-05-02T08:26:13.261Z,2.53
2023-05-02T08:28:45.510Z,2.67
2023-05-02T08:31:17.790Z,2.66
2023-05-02T08:33:50.744Z,2.58
2023-05-02T08:36:23.785Z,2.51
2023-05-02T08:38:56.053Z,2.25
2023-05-02T08:41:34.077Z,2.29
2023-05-02T08:44:07.711Z,2.26
2023-05-02T08:46:44.342Z,2.21
2023-05-02T08:49:21.130Z,2.26
2023-05-02T08:51:54.799Z,2.16
2023-05-02T08:54:29.939Z,2.47
2023-05-02T08:57:07.435Z,2.16
2023-05-02T08:59:41.921Z,2.24
2023-05-02T09:02:22.843Z,2.31
2023-05-02T09:05:03.649Z,1.99
2023-05-02T09:07:45.504Z,2.21
2023-05-02T09:10:18.285Z,2.11
2023-05-02T09:12:53.116Z,2.26
2023-05-02T09:15:26.053Z,2.07
2023-05-02T09:17:59.461Z,2.11
2023-05-02T09:20:32.097Z,2.17
2023-05-02T09:23:04.422Z,2.18
2023-05-02T09:25:41.717Z,2.13
2023-05-02T09:28:16.610Z,2.25
2023-05-02T09:30:48.841Z,2.09
2023-05-02T09:33:31.926Z,2.13
2023-05-02T09:36:04.263Z,2.30
2023-05-02T09:38:36.905Z,2.21
2023-05-02T09:41:09.458Z,2.14
2023-05-02T09:43:45.144Z,2.00
2023-05-02T09:46:17.467Z,2.05
2023-05-02T09:49:00.739Z,2.04
2023-05-02T09:51:32.993Z,1.87
2023-05-02T09:54:05.265Z,2.24
2023-05-02T09:56:57.453Z,2.31
2023-05-02T09:59:32.303Z,2.45
2023-05-02T10:02:06.563Z,2.61
2023-05-02T10:04:40.153Z,2.53
2023-05-02T10:07:16.235Z,2.64
2023-05-02T10:09:50.100Z,2.62
2023-05-02T10:12:28.132Z,2.71
2023-05-02T10:15:08.072Z,2.54
2023-05-02T10:17:49.053Z,2.69
2023-05-02T10:20:29.967Z,2.66
2023-05-02T10:23:04.703Z,2.94
2023-05-02T10:25:38.035Z,2.93
2023-05-02T10:28:10.990Z,2.81
2023-05-02T10:30:46.614Z,2.99
2023-05-02T10:33:20.106Z,2.89
2023-05-02T10:35:52.585Z,3.02
2023-05-02T10:38:26.343Z,2.79
2023-05-02T10:41:03.056Z,3.11
2023-05-02T10:43:39.364Z,3.01
2023-05-02T10:46:40.780Z,3.14
2023-05-02T10:49:14.786Z,2.84
2023-05-02T10:51:47.852Z,2.98
2023-05-02T10:54:27.874Z,2.77
2023-05-02T10:57:11.394Z,2.92
2023-05-02T10:59:46.668Z,2.79
2023-05-02T11:02:54.318Z,3.07
2023-05-02T11:05:28.474Z,2.97
2023-05-02T11:08:30.445Z,2.96
2023-05-02T11:11:33.700Z,3.09
2023-05-02T11:14:06.072Z,3.26
2023-05-02T11:17:08.415Z,3.30
2023-05-02T11:20:10.548Z,3.39
2023-05-02T11:22:47.032Z,3.09
2023-05-02T11:25:41.868Z,3.40
2023-05-02T11:28:44.656Z,3.54
2023-05-02T11:31:49.402Z,3.92
2023-05-02T11:34:22.956Z,4.08
2023-05-02T11:36:55.447Z,4.26
2023-05-02T11:39:30.463Z,4.18
2023-05-02T11:42:02.768Z,3.85
2023-05-02T11:44:36.010Z,3.95
2023-05-02T11:47:08.318Z,3.90
2023-05-02T11:49:41.775Z,3.89
2023-05-02T11:52:13.973Z,3.59
2023-05-02T11:54:49.543Z,4.10
2023-05-02T11:57:22.233Z,3.76
2023-05-02T11:59:55.455Z,4.14
2023-05-02T12:02:41.822Z,4.01
2023-05-02T12:05:16.682Z,4.41
2023-05-02T12:07:51.716Z,4.36
2023-05-02T12:10:26.832Z,4.35
2023-05-02T12:13:10.165Z,4.16
2023-05-02T12:15:45.859Z,4.02
2023-05-02T12:18:21.495Z,4.09
2023-05-02T12:20:56.235Z,4.01
2023-05-02T12:23:30.257Z,4.22
2023-05-02T12:26:21.408Z,4.34
2023-05-02T12:28:54.988Z,4.34
2023-05-02T12:31:29.138Z,4.44
2023-05-02T12:34:01.754Z,4.14
2023-05-02T12:36:34.492Z,4.44
2023-05-02T12:39:06.672Z,4.29
2023-05-02T12:41:46.127Z,4.11
2023-05-02T12:44:18.954Z,4.08
2023-05-02T12:47:03.713Z,3.97
2023-05-02T12:49:36.108Z,3.91
2023-05-02T12:52:08.449Z,3.90
2023-05-02T12:54:40.956Z,3.72
2023-05-02T12:57:26.378Z,3.78
2023-05-02T12:59:59.252Z,3.80
2023-05-02T13:02:32.230Z,3.71
2023-05-02T13:05:04.884Z,3.83
2023-05-02T13:07:37.182Z,4.01
2023-05-02T13:10:11.340Z,3.70
2023-05-02T13:12:47.205Z,3.62
2023-05-02T13:15:19.905Z,3.41
2023-05-02T13:17:54.071Z,3.70
2023-05-02T13:20:26.332Z,3.57
2023-05-02T13:22:58.539Z,3.61
2023-05-02T13:25:31.055Z,3.29
2023-05-02T13:28:06.701Z,3.49
2023-05-02T13:30:39.003Z,3.47
2023-05-02T13:33:11.291Z,3.27
2023-05-02T13:35:43.767Z,3.46
2023-05-02T13:38:16.059Z,3.36
2023-05-02T13:40:48.346Z,3.28
2023-05-02T13:43:26.936Z,3.02
2023-05-02T13:46:00.468Z,3.21
2023-05-02T13:48:32.933Z,3.17
2023-05-02T13:51:05.267Z,3.11
2023-05-02T13:53:37.775Z,3.14
2023-05-02T13:56:10.568Z,3.22
2023-05-02T13:58:45.368Z,2.96
2023-05-02T14:01:17.551Z,2.82
2023-05-02T14:03:49.964Z,2.87
2023-05-02T14:11:05.824Z,2.97
2023-05-02T14:13:39.379Z,3.29
2023-05-02T14:16:11.737Z,2.86
2023-05-02T14:18:45.730Z,3.01
2023-05-02T14:21:17.913Z,2.93
2023-05-02T14:23:50.077Z,2.98
2023-05-02T14:26:24.923Z,2.86
2023-05-02T14:28:57.408Z,3.03
2023-05-02T14:31:29.907Z,2.91
2023-05-02T14:34:02.159Z,2.77
2023-05-02T14:36:34.641Z,2.83
2023-05-02T14:39:06.860Z,2.56
2023-05-02T14:41:41.721Z,2.74
2023-05-02T14:44:13.901Z,2.68
2023-05-02T14:46:46.842Z,2.65
2023-05-02T14:49:19.240Z,2.99
2023-05-02T14:51:51.481Z,2.66
2023-05-02T14:54:23.726Z,2.74
2023-05-02T14:56:59.938Z,2.44
2023-05-02T14:59:33.864Z,2.58
2023-05-02T15:02:06.110Z,2.73
2023-05-02T15:04:38.735Z,2.40
2023-05-02T15:07:11.345Z,2.60
2023-05-02T15:09:43.646Z,2.49
2023-05-02T15:12:18.632Z,2.30
2023-05-02T15:14:51.000Z,2.19
2023-05-02T15:17:23.208Z,2.27
2023-05-02T15:19:57.103Z,2.49
2023-05-02T15:22:30.596Z,2.24
2023-05-02T15:25:04.597Z,2.15
2023-05-02T15:27:40.106Z,2.37
2023-05-02T15:30:14.650Z,2.37
2023-05-02T15:32:48.169Z,2.04
2023-05-02T15:35:20.517Z,2.07
2023-05-02T15:37:52.697Z,2.05
2023-05-02T15:40:26.173Z,2.25
2023-05-02T15:43:00.987Z,2.18
2023-05-02T15:45:33.336Z,2.41
2023-05-02T15:48:05.536Z,2.30
2023-05-02T15:50:37.764Z,2.34
2023-05-02T15:53:09.948Z,2.34
2023-05-02T15:55:42.272Z,2.23
2023-05-02T15:58:17.823Z,2.39
2023-05-02T16:00:52.252Z,2.15
2023-05-02T16:03:24.683Z,2.19
2023-05-02T16:05:59.343Z,2.12
2023-05-02T16:08:32.983Z,2.09
2023-05-02T16:11:05.146Z,2.25
2023-05-02T16:13:40.639Z,2.23
2023-05-02T16:16:13.101Z,2.11
2023-05-02T16:18:45.704Z,1.99
2023-05-02T16:21:17.961Z,2.04
2023-05-02T16:23:50.855Z,2.13
2023-05-02T16:26:23.253Z,3.18
2023-05-02T16:28:58.095Z,2.34
2023-05-02T16:31:31.757Z,2.18
2023-05-02T16:34:04.150Z,1.93
2023-05-02T16:36:36.642Z,1.89
2023-05-02T16:39:10.855Z,1.86
2023-05-02T16:41:43.535Z,1.94
2023-05-02T16:44:18.311Z,2.44
2023-05-02T16:46:50.935Z,2.40
2023-05-02T16:49:23.170Z,4.93
2023-05-02T16:51:56.261Z,9.59
2023-05-02T16:54:28.519Z,3.05
2023-05-02T16:57:02.755Z,1.99
2023-05-02T16:59:37.510Z,2.00
2023-05-02T17:02:09.947Z,1.92
2023-05-02T17:04:42.256Z,1.86
2023-05-02T17:07:14.559Z,1.99
2023-05-02T17:09:47.330Z,1.89
2023-05-02T17:12:22.715Z,1.74
2023-05-02T17:14:58.032Z,1.71
2023-05-02T17:17:32.444Z,1.94
2023-05-02T17:20:05.909Z,1.83
2023-05-02T17:22:39.177Z,1.99
2023-05-02T17:25:13.644Z,1.64
2023-05-02T17:27:45.888Z,1.72
2023-05-02T17:30:21.112Z,1.88
2023-05-02T17:32:53.408Z,1.90
2023-05-02T17:35:26.161Z,1.68
2023-05-02T17:37:58.388Z,1.58
2023-05-02T17:40:30.824Z,1.57
2023-05-02T17:43:02.971Z,1.69
2023-05-02T17:45:39.635Z,1.71
2023-05-02T17:48:11.976Z,1.66
2023-05-02T17:50:45.144Z,1.52
2023-05-02T17:53:17.609Z,1.66
2023-05-02T17:55:49.958Z,1.86
2023-05-02T17:58:22.279Z,1.82
2023-05-02T18:00:57.117Z,1.73
2023-05-02T18:03:29.477Z,1.87
2023-05-02T18:06:01.969Z,1.88
2023-05-02T18:08:34.247Z,1.86
2023-05-02T18:11:06.475Z,1.78
2023-05-02T18:13:39.866Z,1.71
2023-05-02T18:16:15.497Z,1.91
2023-05-02T18:18:47.793Z,1.81
2023-05-02T18:21:26.189Z,1.70
2023-05-02T18:23:59.380Z,1.66
2023-05-02T18:26:31.818Z,1.78
2023-05-02T18:29:04.033Z,1.47
2023-05-02T18:31:40.499Z,1.59
2023-05-02T18:34:12.938Z,1.55
2023-05-02T18:36:45.355Z,1.61
2023-05-02T18:39:17.632Z,1.56
2023-05-02T18:41:49.789Z,1.63
2023-05-02T18:44:22.019Z,1.73
2023-05-02T18:47:01.174Z,1.56
2023-05-02T18:49:33.393Z,1.51
2023-05-02T18:52:05.977Z,1.56
2023-05-02T18:54:38.453Z,1.68
2023-05-02T18:57:11.292Z,1.65
2023-05-02T18:59:43.435Z,1.79
2023-05-02T19:02:18.958Z,1.86
2023-05-02T19:04:51.325Z,1.83
2023-05-02T19:07:23.518Z,1.91
2023-05-02T19:09:56.064Z,2.07
2023-05-02T19:12:28.526Z,1.94
2023-05-02T19:15:01.031Z,2.01
2023-05-02T19:17:36.309Z,1.94
2023-05-02T19:20:10.813Z,1.93
2023-05-02T19:22:43.235Z,1.91
2023-05-02T19:25:15.977Z,1.85
2023-05-02T19:27:49.916Z,2.01
2023-05-02T19:30:22.381Z,2.21
2023-05-02T19:32:57.165Z,2.14
2023-05-02T19:35:34.101Z,2.10
2023-05-02T19:38:06.628Z,2.16
2023-05-02T19:40:38.833Z,1.96
2023-05-02T19:43:11.100Z,2.13
2023-05-02T19:45:43.483Z,2.14
2023-05-02T19:48:18.469Z,1.89
2023-05-02T19:50:50.639Z,2.11
2023-05-02T19:53:23.282Z,2.21
2023-05-02T19:55:55.966Z,1.94
2023-05-02T19:58:28.265Z,2.09
2023-05-02T20:01:00.975Z,1.99
2023-05-02T20:03:36.499Z,1.93
2023-05-02T20:06:09.130Z,2.06
2023-05-02T20:08:41.346Z,2.22
2023-05-02T20:11:13.568Z,2.05
2023-05-02T20:13:46.009Z,2.12
2023-05-02T20:16:18.512Z,2.26
2023-05-02T20:18:53.349Z,2.19
2023-05-02T20:21:25.914Z,2.19
2023-05-02T20:23:58.041Z,2.24
2023-05-02T20:26:33.941Z,2.18
2023-05-02T20:29:07.879Z,2.28
2023-05-02T20:31:40.248Z,2.14
2023-05-02T20:34:15.107Z,2.31
2023-05-02T20:36:47.483Z,2.26
2023-05-02T20:39:20.949Z,2.16
2023-05-02T20:41:53.223Z,2.34
2023-05-02T20:44:28.649Z,2.23
2023-05-02T20:47:00.987Z,2.13
2023-05-02T20:49:38.127Z,2.38
2023-05-02T20:52:10.690Z,2.44
2023-05-02T20:54:42.931Z,2.52
2023-05-02T20:57:15.438Z,2.52
2023-05-02T20:59:48.372Z,2.64
2023-05-02T21:02:21.540Z,2.80
2023-05-02T21:04:56.556Z,2.53
2023-05-02T21:07:28.895Z,2.62
2023-05-02T21:10:01.544Z,2.55
2023-05-02T21:12:33.947Z,2.87
2023-05-02T21:15:06.237Z,2.94
2023-05-02T21:17:38.795Z,2.96
2023-05-02T21:20:15.133Z,3.22
2023-05-02T21:22:47.310Z,3.07
2023-05-02T21:25:19.792Z,2.86
2023-05-02T21:27:51.988Z,2.86
2023-05-02T21:30:24.602Z,2.83
2023-05-02T21:32:56.856Z,3.06
2023-05-02T21:35:34.147Z,2.95
2023-05-02T21:38:06.314Z,2.54
2023-05-02T21:40:39.749Z,2.96
2023-05-02T21:43:11.988Z,2.86
2023-05-02T21:45:48.485Z,2.69
2023-05-02T21:48:21.585Z,2.57
2023-05-02T21:50:56.626Z,2.44
2023-05-02T21:53:29.402Z,2.54
2023-05-02T21:56:01.791Z,2.76
2023-05-02T21:58:34.154Z,2.61
2023-05-02T22:01:06.419Z,2.76
2023-05-02T22:03:39.267Z,2.64
2023-05-02T22:06:15.545Z,2.86
2023-05-02T22:08:47.792Z,2.75
2023-05-02T22:11:21.845Z,2.93
2023-05-02T22:13:54.149Z,3.05
2023-05-02T22:16:26.582Z,3.20
2023-05-02T22:18:59.407Z,2.98
2023-05-02T22:21:34.555Z,3.00
2023-05-02T22:24:06.863Z,3.37
2023-05-02T22:26:39.629Z,2.99
2023-05-02T22:29:11.868Z,3.15
2023-05-02T22:31:44.219Z,2.98
2023-05-02T22:34:16.689Z,3.14
2023-05-02T22:36:51.666Z,3.05
2023-05-02T22:39:24.265Z,3.12
2023-05-02T22:41:57.378Z,3.05
2023-05-02T22:44:30.103Z,3.14
2023-05-02T22:47:03.600Z,2.97
2023-05-02T22:49:36.017Z,3.45
2023-05-02T22:52:10.937Z,3.06
2023-05-02T22:54:43.464Z,3.02
2023-05-02T22:57:15.709Z,3.09
2023-05-02T22:59:47.946Z,3.15
2023-05-02T23:02:20.368Z,3.29
2023-05-02T23:04:52.797Z,3.14
2023-05-02T23:07:27.561Z,3.09
2023-05-02T23:09:59.883Z,2.99
2023-05-02T23:12:33.276Z,3.03
2023-05-02T23:15:05.638Z,3.11
2023-05-02T23:17:41.235Z,3.35
2023-05-02T23:20:15.330Z,2.92
2023-05-02T23:22:51.471Z,2.99
2023-05-02T23:25:26.507Z,3.09
2023-05-02T23:27:58.706Z,2.97
2023-05-02T23:30:31.085Z,2.91
2023-05-02T23:33:04.319Z,3.34
2023-05-02T23:35:37.159Z,3.33
2023-05-02T23:38:12.320Z,2.85
2023-05-02T23:40:44.665Z,3.19
2023-05-02T23:43:17.034Z,3.06
2023-05-02T23:45:50.219Z,3.08
2023-05-02T23:48:22.441Z,3.06
2023-05-02T23:50:54.633Z,3.16
2023-05-02T23:53:29.397Z,3.06
2023-05-02T23:56:02.174Z,3.04
2023-05-02T23:58:34.364Z,3.32
